createdAt,value
2022-12-16T00:02:21.550Z,100806.03
2022-12-16T00:04:48.013Z,100802.56
2022-12-16T00:07:14.486Z,100802.09
2022-12-16T00:09:40.982Z,100793.63
2022-12-16T00:12:07.419Z,100799.53
2022-12-16T00:14:34.654Z,100789.06
2022-12-16T00:17:01.076Z,100798.13
2022-12-16T00:19:27.692Z,100801.88
2022-12-16T00:21:54.106Z,100803.72
2022-12-16T00:24:21.185Z,100814.66
2022-12-16T00:26:47.681Z,100813.28
2022-12-16T00:29:14.209Z,100806.22
2022-12-16T00:31:40.685Z,100807.03
2022-12-16T00:34:07.159Z,100807.16
2022-12-16T00:36:34.608Z,100810.09
2022-12-16T00:39:01.203Z,100806.22
2022-12-16T00:41:27.680Z,100809.13
2022-12-16T00:43:54.081Z,100802.50
2022-12-16T00:46:21.149Z,100814.25
2022-12-16T00:48:47.588Z,100811.19
2022-12-16T00:51:14.166Z,100810.22
2022-12-16T00:53:40.561Z,100804.66
2022-12-16T00:56:09.138Z,100807.72
2022-12-16T00:58:36.560Z,100811.44
2022-12-16T01:01:03.832Z,100815.75
2022-12-16T01:03:30.731Z,100815.75
2022-12-16T01:05:57.373Z,100809.13
2022-12-16T01:08:23.769Z,100808.81
2022-12-16T01:10:55.446Z,100815.25
2022-12-16T01:13:23.010Z,100808.16
2022-12-16T01:15:49.546Z,100819.84
2022-12-16T01:18:18.747Z,100808.81
2022-12-16T01:20:45.254Z,100820.16
2022-12-16T01:23:11.661Z,100828.44
2022-12-16T01:25:38.117Z,100830.19
2022-12-16T01:28:04.608Z,100837.50
2022-12-16T01:30:31.488Z,100838.28
2022-12-16T01:32:57.880Z,100833.03
2022-12-16T01:35:52.181Z,100836.09
2022-12-16T01:38:10.824Z,100841.75
2022-12-16T01:40:37.242Z,100842.41
2022-12-16T01:43:11.312Z,100842.19
2022-12-16T01:45:38.798Z,100837.06
2022-12-16T01:48:28.004Z,100843.72
2022-12-16T01:50:59.765Z,100847.63
2022-12-16T01:53:26.364Z,100845.88
2022-12-16T01:55:53.488Z,100849.38
2022-12-16T01:58:24.067Z,100845.13
2022-12-16T02:00:50.782Z,100856.47
2022-12-16T02:03:17.623Z,100858.44
2022-12-16T02:05:44.922Z,100851.78
2022-12-16T02:08:19.362Z,100848.72
2022-12-16T02:11:19.442Z,100832.03
2022-12-16T02:13:54.162Z,100831.69
2022-12-16T02:16:30.004Z,100839.94
2022-12-16T02:19:01.970Z,100845.47
2022-12-16T02:21:28.311Z,100840.84
2022-12-16T02:24:33.808Z,100839.38
2022-12-16T02:27:12.574Z,100842.06
2022-12-16T02:30:03.316Z,100841.91
2022-12-16T02:33:02.080Z,100846.34
2022-12-16T02:35:50.375Z,100849.91
2022-12-16T02:38:26.257Z,100843.59
2022-12-16T02:40:57.723Z,100853.78
2022-12-16T02:43:57.474Z,100853.72
2022-12-16T02:46:26.761Z,100855.84
2022-12-16T02:48:54.247Z,100850.63
2022-12-16T02:51:22.148Z,100852.34
2022-12-16T02:53:49.101Z,100854.97
2022-12-16T02:56:27.773Z,100851.91
2022-12-16T02:59:12.743Z,100855.78
2022-12-16T03:01:50.121Z,100852.81
2022-12-16T03:04:21.835Z,100860.19
2022-12-16T03:06:50.229Z,100866.66
2022-12-16T03:09:20.533Z,100872.06
2022-12-16T03:11:48.265Z,100868.38
2022-12-16T03:14:16.773Z,100878.53
2022-12-16T03:16:44.296Z,100876.56
2022-12-16T03:19:11.755Z,100882.06
2022-12-16T03:21:55.857Z,100888.06
2022-12-16T03:24:22.247Z,100880.88
2022-12-16T03:26:57.113Z,100885.47
2022-12-16T03:29:40.579Z,100892.84
2022-12-16T03:32:15.678Z,100893.16
2022-12-16T03:34:45.591Z,100885.66
2022-12-16T03:37:12.974Z,100892.06
2022-12-16T03:39:46.461Z,100896.09
2022-12-16T03:42:15.354Z,100896.09
2022-12-16T03:44:48.849Z,100895.47
2022-12-16T03:47:21.507Z,100901.91
2022-12-16T03:49:49.951Z,100905.63
2022-12-16T03:52:16.593Z,100902.09
2022-12-16T03:54:43.005Z,100910.53
2022-12-16T03:57:15.038Z,100914.69
2022-12-16T03:59:42.095Z,100922.66
2022-12-16T04:02:08.707Z,100920.50
2022-12-16T04:04:35.405Z,100912.50
2022-12-16T04:07:20.206Z,100917.88
2022-12-16T04:09:47.732Z,100920.94
2022-12-16T04:12:33.365Z,100932.91
2022-12-16T04:15:18.501Z,100926.78
2022-12-16T04:18:03.507Z,100931.06
2022-12-16T04:20:50.482Z,100937.00
2022-12-16T04:23:36.316Z,100950.06
2022-12-16T04:26:02.998Z,100931.28
2022-12-16T04:28:29.679Z,100939.84
2022-12-16T04:30:56.482Z,100947.03
2022-12-16T04:33:41.594Z,100944.56
2022-12-16T04:36:27.117Z,100948.50
2022-12-16T04:39:12.162Z,100948.69
2022-12-16T04:41:57.175Z,100948.22
2022-12-16T04:44:42.337Z,100955.38
2022-12-16T04:47:27.497Z,100959.06
2022-12-16T04:50:12.449Z,100954.81
2022-12-16T04:52:57.703Z,100953.72
2022-12-16T04:55:42.578Z,100956.06
2022-12-16T04:58:27.662Z,100959.50
2022-12-16T05:01:12.750Z,100955.63
2022-12-16T05:03:57.750Z,100961.66
2022-12-16T05:06:42.613Z,100961.38
2022-12-16T05:09:27.719Z,100965.69
2022-12-16T05:12:12.819Z,100968.63
2022-12-16T05:14:57.945Z,100971.03
2022-12-16T05:17:43.012Z,100969.94
2022-12-16T05:20:28.527Z,100974.84
2022-12-16T05:23:14.733Z,100982.50
2022-12-16T05:25:59.852Z,100976.63
2022-12-16T05:28:44.717Z,100973.22
2022-12-16T05:31:29.979Z,100979.72
2022-12-16T05:34:15.115Z,100980.47
2022-12-16T05:37:00.315Z,100987.84
2022-12-16T05:39:45.227Z,100997.63
2022-12-16T05:42:30.302Z,101002.88
2022-12-16T05:45:15.268Z,101008.84
2022-12-16T05:48:00.244Z,101004.69
2022-12-16T05:50:45.181Z,101014.28
2022-12-16T05:53:30.801Z,101015.03
2022-12-16T05:56:15.817Z,101024.25
2022-12-16T05:59:00.806Z,101015.78
2022-12-16T06:01:46.048Z,101024.84
2022-12-16T06:04:31.148Z,101020.97
2022-12-16T06:07:16.100Z,101015.59
2022-12-16T06:10:01.146Z,101017.63
2022-12-16T06:12:46.225Z,101024.88
2022-12-16T06:15:31.387Z,101026.63
2022-12-16T06:18:16.262Z,101036.13
2022-12-16T06:21:01.979Z,101032.34
2022-12-16T06:23:47.120Z,101033.84
2022-12-16T06:26:32.062Z,101036.66
2022-12-16T06:29:17.166Z,101032.94
2022-12-16T06:32:02.283Z,101046.50
2022-12-16T06:34:47.419Z,101042.16
2022-12-16T06:37:32.479Z,101048.50
2022-12-16T06:40:17.389Z,101049.13
2022-12-16T06:43:02.400Z,101058.50
2022-12-16T06:45:47.414Z,101054.34
2022-12-16T06:48:32.510Z,101063.44
2022-12-16T06:51:17.532Z,101058.50
2022-12-16T06:54:02.690Z,101070.22
2022-12-16T06:56:47.774Z,101072.31
2022-12-16T06:59:32.845Z,101078.31
2022-12-16T07:02:18.038Z,101086.47
2022-12-16T07:05:03.269Z,101099.09
2022-12-16T07:07:48.550Z,101100.75
2022-12-16T07:10:33.596Z,101110.44
2022-12-16T07:13:19.303Z,101107.47
2022-12-16T07:16:10.519Z,101102.75
2022-12-16T07:18:55.503Z,101116.16
2022-12-16T07:21:40.633Z,101126.59
2022-12-16T07:24:25.597Z,101141.53
2022-12-16T07:27:10.609Z,101145.34
2022-12-16T07:29:55.673Z,101141.31
2022-12-16T07:32:40.919Z,101141.03
2022-12-16T07:35:33.721Z,101143.63
2022-12-16T07:38:18.566Z,101156.72
2022-12-16T07:41:03.648Z,101160.53
2022-12-16T07:43:48.804Z,101160.66
2022-12-16T07:46:33.975Z,101168.06
2022-12-16T07:49:19.181Z,101182.34
2022-12-16T07:52:03.943Z,101182.78
2022-12-16T07:54:49.150Z,101195.41
2022-12-16T07:57:34.272Z,101199.56
2022-12-16T08:00:19.249Z,101197.06
2022-12-16T08:03:04.618Z,101204.75
2022-12-16T08:05:50.073Z,101210.16
2022-12-16T08:08:36.089Z,101203.94
2022-12-16T08:11:21.108Z,101215.81
2022-12-16T08:14:06.072Z,101221.50
2022-12-16T08:16:51.238Z,101219.53
2022-12-16T08:19:36.238Z,101231.19
2022-12-16T08:22:21.336Z,101238.25
2022-12-16T08:25:06.449Z,101237.34
2022-12-16T08:27:51.752Z,101239.97
2022-12-16T08:30:36.965Z,101251.34
2022-12-16T08:33:29.233Z,101260.44
2022-12-16T08:36:16.959Z,101259.16
2022-12-16T08:39:02.677Z,101278.09
2022-12-16T08:41:47.783Z,101279.94
2022-12-16T08:44:32.658Z,101290.34
2022-12-16T08:47:18.044Z,101285.22
2022-12-16T08:50:03.188Z,101288.53
2022-12-16T08:52:48.190Z,101291.75
2022-12-16T08:55:33.238Z,101291.88
2022-12-16T08:58:18.315Z,101295.53
2022-12-16T09:01:07.051Z,101303.00
2022-12-16T09:03:54.114Z,101300.06
2022-12-16T09:06:40.890Z,101306.97
2022-12-16T09:09:26.557Z,101310.03
2022-12-16T09:12:11.501Z,101322.47
2022-12-16T09:14:56.680Z,101314.84
2022-12-16T09:17:41.655Z,101323.84
2022-12-16T09:20:27.221Z,101325.53
2022-12-16T09:23:12.166Z,101336.16
2022-12-16T09:25:57.340Z,101339.75
2022-12-16T09:28:42.556Z,101343.19
2022-12-16T09:31:27.855Z,101351.50
2022-12-16T09:34:13.013Z,101343.69
2022-12-16T09:36:58.056Z,101349.19
2022-12-16T09:39:45.790Z,101352.00
2022-12-16T09:42:50.817Z,101352.56
2022-12-16T09:46:11.509Z,101355.41
2022-12-16T09:49:25.421Z,101354.78
2022-12-16T09:52:15.004Z,101360.50
2022-12-16T09:55:04.652Z,101359.19
2022-12-16T09:57:51.710Z,101361.50
2022-12-16T10:00:42.173Z,101364.34
2022-12-16T10:04:00.064Z,101358.63
2022-12-16T10:07:00.584Z,101361.47
2022-12-16T10:09:50.558Z,101364.44
2022-12-16T10:12:56.297Z,101362.50
2022-12-16T10:15:57.989Z,101352.22
2022-12-16T10:19:06.073Z,101362.28
2022-12-16T10:21:56.002Z,101362.94
2022-12-16T10:25:07.269Z,101371.91
2022-12-16T10:28:04.554Z,101375.84
2022-12-16T10:30:51.102Z,101373.84
2022-12-16T10:33:37.908Z,101376.69
2022-12-16T10:36:23.548Z,101369.50
2022-12-16T10:39:14.414Z,101384.41
2022-12-16T10:42:04.303Z,101374.19
2022-12-16T10:45:14.175Z,101380.91
2022-12-16T10:47:59.294Z,101375.22
2022-12-16T10:50:44.482Z,101375.41
2022-12-16T10:53:35.062Z,101368.16
2022-12-16T10:56:26.598Z,101374.09
2022-12-16T10:59:18.336Z,101371.25
2022-12-16T11:02:35.452Z,101380.25
2022-12-16T11:05:20.782Z,101369.38
2022-12-16T11:08:05.807Z,101385.69
2022-12-16T11:11:02.433Z,101377.69
2022-12-16T11:13:55.044Z,101390.31
2022-12-16T11:16:47.638Z,101378.69
2022-12-16T11:19:44.585Z,101391.84
2022-12-16T11:22:36.937Z,101389.84
2022-12-16T11:25:31.193Z,101388.31
2022-12-16T11:28:23.070Z,101401.00
2022-12-16T11:31:11.995Z,101402.53
2022-12-16T11:33:58.334Z,101401.00
2022-12-16T11:36:45.298Z,101413.97
2022-12-16T11:39:33.794Z,101406.75
2022-12-16T11:42:19.470Z,101407.38
2022-12-16T11:45:10.156Z,101408.25
2022-12-16T11:48:04.892Z,101410.69
2022-12-16T11:50:53.091Z,101408.69
2022-12-16T11:53:45.120Z,101410.59
2022-12-16T11:56:42.895Z,101399.72
2022-12-16T11:59:43.446Z,101400.94
2022-12-16T12:02:37.552Z,101409.94
2022-12-16T12:05:22.944Z,101406.09
2022-12-16T12:08:23.559Z,101406.50
2022-12-16T12:11:32.344Z,101412.66
2022-12-16T12:14:23.602Z,101410.66
2022-12-16T12:17:20.970Z,101408.91
2022-12-16T12:20:17.314Z,101410.00
2022-12-16T12:23:02.700Z,101419.13
2022-12-16T12:26:13.197Z,101412.34
2022-12-16T12:29:14.122Z,101418.09
2022-12-16T12:32:25.622Z,101423.38
2022-12-16T12:35:22.287Z,101412.94
2022-12-16T12:38:33.568Z,101420.06
2022-12-16T12:41:37.924Z,101415.78
2022-12-16T12:44:36.760Z,101437.25
2022-12-16T12:47:32.814Z,101435.41
2022-12-16T12:50:32.768Z,101434.28
2022-12-16T12:53:27.615Z,101427.94
2022-12-16T12:56:48.080Z,101428.72
2022-12-16T13:00:03.935Z,101436.59
2022-12-16T13:03:34.003Z,101435.22
2022-12-16T13:06:19.948Z,101428.53
2022-12-16T13:09:08.108Z,101427.53
2022-12-16T13:11:53.968Z,101420.94
2022-12-16T13:14:49.130Z,101425.69
2022-12-16T13:17:35.036Z,101435.53
2022-12-16T13:20:20.926Z,101434.88
2022-12-16T13:23:06.068Z,101434.44
2022-12-16T13:26:10.344Z,101442.44
2022-12-16T13:28:57.898Z,101443.09
2022-12-16T13:31:43.571Z,101445.84
2022-12-16T13:34:28.606Z,101449.25
2022-12-16T13:37:19.485Z,101452.03
2022-12-16T13:40:24.208Z,101456.50
2022-12-16T13:43:12.308Z,101462.53
2022-12-16T13:46:23.037Z,101455.84
2022-12-16T13:49:08.508Z,101455.06
2022-12-16T13:51:56.524Z,101455.38
2022-12-16T13:54:55.110Z,101461.56
2022-12-16T13:57:42.635Z,101459.13
2022-12-16T14:00:41.967Z,101460.88
2022-12-16T14:03:38.698Z,101474.13
2022-12-16T14:06:27.745Z,101473.78
2022-12-16T14:09:13.174Z,101482.88
2022-12-16T14:11:58.475Z,101485.19
2022-12-16T14:14:54.925Z,101496.16
2022-12-16T14:17:52.079Z,101503.41
2022-12-16T14:20:49.389Z,101509.53
2022-12-16T14:23:55.725Z,101512.84
2022-12-16T14:26:39.289Z,101523.22
2022-12-16T14:29:46.240Z,101526.59
2022-12-16T14:32:52.417Z,101525.50
2022-12-16T14:35:41.934Z,101529.75
2022-12-16T14:38:49.085Z,101530.94
2022-12-16T14:41:37.583Z,101532.53
2022-12-16T14:44:24.632Z,101528.44
2022-12-16T14:47:10.269Z,101538.44
2022-12-16T14:49:55.321Z,101537.94
2022-12-16T14:52:43.002Z,101546.28
2022-12-16T14:55:49.414Z,101542.66
2022-12-16T14:58:36.972Z,101549.28
2022-12-16T15:01:32.538Z,101553.19
2022-12-16T15:04:18.845Z,101552.34
2022-12-16T15:07:07.051Z,101548.03
2022-12-16T15:10:00.609Z,101556.13
2022-12-16T15:12:48.152Z,101565.25
2022-12-16T15:15:51.388Z,101568.22
2022-12-16T15:18:40.615Z,101571.16
2022-12-16T15:21:26.128Z,101566.88
2022-12-16T15:24:11.271Z,101575.81
2022-12-16T15:26:56.163Z,101582.13
2022-12-16T15:29:55.488Z,101581.66
2022-12-16T15:32:52.674Z,101589.22
2022-12-16T15:36:04.871Z,101587.53
2022-12-16T15:38:51.788Z,101590.59
2022-12-16T15:41:42.209Z,101590.59
2022-12-16T15:44:38.377Z,101595.84
2022-12-16T15:47:24.442Z,101598.94
2022-12-16T15:50:09.667Z,101607.69
2022-12-16T15:52:59.755Z,101609.06
2022-12-16T15:55:46.433Z,101611.84
2022-12-16T15:58:47.396Z,101612.50
2022-12-16T16:01:34.717Z,101619.28
2022-12-16T16:04:20.457Z,101623.41
2022-12-16T16:07:11.987Z,101620.00
2022-12-16T16:09:58.151Z,101622.94
2022-12-16T16:12:43.907Z,101629.84
2022-12-16T16:15:31.130Z,101628.47
2022-12-16T16:18:18.749Z,101637.06
2022-12-16T16:21:04.479Z,101631.84
2022-12-16T16:23:51.173Z,101634.94
2022-12-16T16:26:38.873Z,101631.47
2022-12-16T16:29:24.209Z,101638.72
2022-12-16T16:32:09.423Z,101636.44
2022-12-16T16:34:54.307Z,101645.94
2022-12-16T16:37:40.504Z,101649.38
2022-12-16T16:40:41.253Z,101641.16
2022-12-16T16:43:26.265Z,101641.94
2022-12-16T16:46:13.196Z,101652.19
2022-12-16T16:48:58.698Z,101651.28
2022-12-16T16:51:43.756Z,101658.81
2022-12-16T16:54:28.820Z,101658.81
2022-12-16T16:57:13.796Z,101663.28
2022-12-16T16:59:58.779Z,101656.56
2022-12-16T17:02:43.985Z,101652.59
2022-12-16T17:05:29.759Z,101656.47
2022-12-16T17:08:15.208Z,101661.06
2022-12-16T17:11:00.833Z,101659.00
2022-12-16T17:13:45.920Z,101665.59
2022-12-16T17:16:32.134Z,101668.88
2022-12-16T17:19:17.789Z,101672.78
2022-12-16T17:22:02.631Z,101684.50
2022-12-16T17:24:50.316Z,101687.72
2022-12-16T17:27:40.790Z,101694.16
2022-12-16T17:30:40.789Z,101692.34
2022-12-16T17:33:30.176Z,101699.50
2022-12-16T17:36:15.313Z,101704.22
2022-12-16T17:39:01.765Z,101707.00
2022-12-16T17:41:48.296Z,101704.81
2022-12-16T17:44:33.381Z,101705.28
2022-12-16T17:47:18.810Z,101714.84
2022-12-16T17:50:03.850Z,101711.75
2022-12-16T17:52:49.251Z,101712.69
2022-12-16T17:55:34.339Z,101708.53
2022-12-16T17:58:19.527Z,101709.63
2022-12-16T18:01:04.491Z,101716.94
2022-12-16T18:03:49.279Z,101721.72
2022-12-16T18:06:34.346Z,101721.53
2022-12-16T18:09:19.212Z,101720.69
2022-12-16T18:12:04.182Z,101724.47
2022-12-16T18:14:49.243Z,101735.16
2022-12-16T18:17:34.567Z,101726.69
2022-12-16T18:20:19.691Z,101734.88
2022-12-16T18:23:04.625Z,101735.81
2022-12-16T18:25:49.719Z,101746.16
2022-12-16T18:28:34.767Z,101752.19
2022-12-16T18:31:23.807Z,101746.97
2022-12-16T18:34:08.961Z,101759.19
2022-12-16T18:36:54.063Z,101751.38
2022-12-16T18:39:38.997Z,101763.38
2022-12-16T18:42:24.194Z,101759.84
2022-12-16T18:45:09.628Z,101769.34
2022-12-16T18:47:54.719Z,101768.88
2022-12-16T18:50:39.932Z,101773.97
2022-12-16T18:53:25.119Z,101774.09
2022-12-16T18:56:20.576Z,101778.16
2022-12-16T18:59:05.725Z,101771.72
2022-12-16T19:01:51.113Z,101774.03
2022-12-16T19:04:36.087Z,101774.97
2022-12-16T19:07:21.076Z,101785.16
2022-12-16T19:10:05.985Z,101789.88
2022-12-16T19:12:51.112Z,101794.53
2022-12-16T19:15:41.022Z,101785.09
2022-12-16T19:18:26.463Z,101792.50
2022-12-16T19:21:15.518Z,101793.72
2022-12-16T19:24:01.122Z,101803.94
2022-12-16T19:26:45.949Z,101809.34
2022-12-16T19:29:30.771Z,101800.06
2022-12-16T19:32:15.855Z,101805.59
2022-12-16T19:35:01.019Z,101815.00
2022-12-16T19:37:46.117Z,101817.81
2022-12-16T19:40:31.179Z,101820.25
2022-12-16T19:43:16.359Z,101826.59
2022-12-16T19:46:01.413Z,101825.81
2022-12-16T19:48:46.608Z,101821.94
2022-12-16T19:51:36.107Z,101826.44
2022-12-16T19:54:21.371Z,101827.63
2022-12-16T19:57:06.318Z,101831.66
2022-12-16T19:59:51.711Z,101835.38
2022-12-16T20:02:37.170Z,101835.97
2022-12-16T20:05:22.472Z,101840.84
2022-12-16T20:08:07.521Z,101839.91
2022-12-16T20:10:54.896Z,101840.72
2022-12-16T20:13:41.373Z,101836.28
2022-12-16T20:16:28.344Z,101844.31
2022-12-16T20:19:13.537Z,101839.06
2022-12-16T20:22:04.558Z,101842.41
2022-12-16T20:24:51.352Z,101840.69
2022-12-16T20:27:36.883Z,101843.72
2022-12-16T20:30:22.518Z,101847.00
2022-12-16T20:33:07.538Z,101848.16
2022-12-16T20:35:52.314Z,101858.47
2022-12-16T20:38:41.138Z,101863.03
2022-12-16T20:41:26.333Z,101869.31
2022-12-16T20:44:11.232Z,101864.81
2022-12-16T20:46:56.443Z,101874.69
2022-12-16T20:49:41.730Z,101878.75
2022-12-16T20:52:26.654Z,101881.66
2022-12-16T20:55:11.736Z,101877.25
2022-12-16T20:57:56.801Z,101884.09
2022-12-16T21:00:42.037Z,101888.25
2022-12-16T21:03:27.679Z,101890.66
2022-12-16T21:06:12.839Z,101893.16
2022-12-16T21:08:58.112Z,101898.09
2022-12-16T21:11:43.163Z,101893.50
2022-12-16T21:14:28.414Z,101897.97
2022-12-16T21:17:13.557Z,101897.69
2022-12-16T21:20:15.046Z,101900.75
2022-12-16T21:23:00.447Z,101899.94
2022-12-16T21:25:45.355Z,101902.69
2022-12-16T21:28:31.423Z,101903.03
2022-12-16T21:31:19.558Z,101894.13
2022-12-16T21:34:04.260Z,101897.78
2022-12-16T21:36:49.214Z,101907.31
2022-12-16T21:39:34.316Z,101911.31
2022-12-16T21:42:19.386Z,101911.97
2022-12-16T21:45:04.180Z,101902.56
2022-12-16T21:47:49.208Z,101907.94
2022-12-16T21:50:34.218Z,101920.91
2022-12-16T21:53:19.395Z,101914.44
2022-12-16T21:56:10.536Z,101917.97
2022-12-16T21:58:55.684Z,101918.28
2022-12-16T22:01:40.482Z,101914.13
2022-12-16T22:04:25.718Z,101932.63
2022-12-16T22:07:24.510Z,101926.38
2022-12-16T22:10:09.679Z,101916.19
2022-12-16T22:12:56.198Z,101924.31
2022-12-16T22:15:41.517Z,101920.69
2022-12-16T22:18:26.629Z,101925.59
2022-12-16T22:21:20.634Z,101939.09
2022-12-16T22:24:05.717Z,101938.75
2022-12-16T22:26:50.900Z,101942.03
2022-12-16T22:29:38.675Z,101939.91
2022-12-16T22:32:24.177Z,101946.69
2022-12-16T22:35:09.048Z,101940.13
2022-12-16T22:37:54.338Z,101935.66
2022-12-16T22:40:41.292Z,101947.28
2022-12-16T22:43:26.097Z,101947.47
2022-12-16T22:46:21.735Z,101945.16
2022-12-16T22:49:06.788Z,101946.50
2022-12-16T22:51:52.382Z,101952.72
2022-12-16T22:54:39.088Z,101953.09
2022-12-16T22:57:24.144Z,101947.88
2022-12-16T23:00:09.031Z,101952.69
2022-12-16T23:02:54.834Z,101965.25
2022-12-16T23:05:39.842Z,101964.31
2022-12-16T23:08:24.551Z,101964.09
2022-12-16T23:11:17.266Z,101968.53
2022-12-16T23:14:02.560Z,101960.09
2022-12-16T23:16:48.089Z,101956.84
2022-12-16T23:19:33.116Z,101959.22
2022-12-16T23:22:18.235Z,101959.88
2022-12-16T23:25:03.330Z,101967.25
2022-12-16T23:27:48.503Z,101969.44
2022-12-16T23:30:33.544Z,101966.63
2022-12-16T23:33:19.912Z,101970.66
2022-12-16T23:36:04.911Z,101968.25
2022-12-16T23:38:50.085Z,101967.41
2022-12-16T23:41:35.223Z,101968.75
2022-12-16T23:44:19.931Z,101968.84
2022-12-16T23:47:04.852Z,101961.59
2022-12-16T23:49:49.921Z,101960.66
2022-12-16T23:52:35.047Z,101971.44
2022-12-16T23:55:19.970Z,101969.81
2022-12-16T23:58:05.168Z,101972.09
